Terminal Aerodrome Forecast
Issued by NWS

Home | Current Version | Previous Version | Text Only | Print | Product List | Glossary On
Versions: 1 2 3 4 5 6 7 8 9 10 11 12 13 14 15 16
000
FTUS43 KBIS 251100
TAFMOT
TAF
KMOT 251120Z 2512/2612 28010KT P6SM SCT120 BKN200
     FM251600 VRB06KT P6SM BKN120 BKN200
     FM252300 13008KT P6SM SCT120 SCT200=

USA.gov is the U.S. government's official web portal to all federal, state and local government web resources and services.